sensor_id;sensor_type;location;lat;lon;timestamp;temperature;humidity
70166;SHT30;57541;47.408;18.822;2023-05-16T00:00:04;13.61;99.99
70166;SHT30;57541;47.408;18.822;2023-05-16T00:00:37;13.61;99.99
70166;SHT30;57541;47.408;18.822;2023-05-16T00:01:09;13.59;99.99
70166;SHT30;57541;47.408;18.822;2023-05-16T00:01:41;13.64;99.99
70166;SHT30;57541;47.408;18.822;2023-05-16T00:02:13;13.61;99.99
70166;SHT30;57541;47.408;18.822;2023-05-16T00:02:45;13.55;99.99
70166;SHT30;57541;47.408;18.822;2023-05-16T00:03:17;13.54;99.99
70166;SHT30;57541;47.408;18.822;2023-05-16T00:03:48;13.54;99.99
70166;SHT30;57541;47.408;18.822;2023-05-16T00:04:20;13.54;99.99
70166;SHT30;57541;47.408;18.822;2023-05-16T00:04:53;13.55;99.99
70166;SHT30;57541;47.408;18.822;2023-05-16T00:05:25;13.53;99.99
70166;SHT30;57541;47.408;18.822;2023-05-16T00:05:57;13.51;99.99
70166;SHT30;57541;47.408;18.822;2023-05-16T00:06:30;13.51;99.99
70166;SHT30;57541;47.408;18.822;2023-05-16T00:07:02;13.47;99.99
70166;SHT30;57541;47.408;18.822;2023-05-16T00:07:34;13.45;99.99
70166;SHT30;57541;47.408;18.822;2023-05-16T00:08:05;13.50;99.99
70166;SHT30;57541;47.408;18.822;2023-05-16T00:08:37;13.41;99.99
70166;SHT30;57541;47.408;18.822;2023-05-16T00:09:09;13.44;99.99
70166;SHT30;57541;47.408;18.822;2023-05-16T00:09:40;13.43;99.99
70166;SHT30;57541;47.408;18.822;2023-05-16T00:10:12;13.45;99.99
70166;SHT30;57541;47.408;18.822;2023-05-16T00:10:44;13.45;99.99
70166;SHT30;57541;47.408;18.822;2023-05-16T00:11:16;13.40;99.99
70166;SHT30;57541;47.408;18.822;2023-05-16T00:11:48;13.37;99.99
70166;SHT30;57541;47.408;18.822;2023-05-16T00:12:20;13.40;99.99
70166;SHT30;57541;47.408;18.822;2023-05-16T00:12:53;13.40;99.99
70166;SHT30;57541;47.408;18.822;2023-05-16T00:13:25;13.41;99.99
70166;SHT30;57541;47.408;18.822;2023-05-16T00:13:57;13.44;99.99
70166;SHT30;57541;47.408;18.822;2023-05-16T00:14:29;13.45;99.99
70166;SHT30;57541;47.408;18.822;2023-05-16T00:15:01;13.47;99.99
70166;SHT30;57541;47.408;18.822;2023-05-16T00:15:34;13.43;99.99
70166;SHT30;57541;47.408;18.822;2023-05-16T00:16:06;13.41;99.99
70166;SHT30;57541;47.408;18.822;2023-05-16T00:16:38;13.40;99.99
70166;SHT30;57541;47.408;18.822;2023-05-16T00:17:12;13.43;99.99
70166;SHT30;57541;47.408;18.822;2023-05-16T00:17:45;13.40;99.99
70166;SHT30;57541;47.408;18.822;2023-05-16T00:18:18;13.41;99.99
70166;SHT30;57541;47.408;18.822;2023-05-16T00:18:49;13.40;99.99
70166;SHT30;57541;47.408;18.822;2023-05-16T00:19:23;13.40;99.99
70166;SHT30;57541;47.408;18.822;2023-05-16T00:19:55;13.43;99.99
70166;SHT30;57541;47.408;18.822;2023-05-16T00:20:29;13.38;99.99
70166;SHT30;57541;47.408;18.822;2023-05-16T00:21:00;13.40;99.99
70166;SHT30;57541;47.408;18.822;2023-05-16T00:21:32;13.45;99.99
70166;SHT30;57541;47.408;18.822;2023-05-16T00:22:04;13.40;99.99
70166;SHT30;57541;47.408;18.822;2023-05-16T00:22:36;13.33;99.99
70166;SHT30;57541;47.408;18.822;2023-05-16T00:23:08;13.38;99.99
70166;SHT30;57541;47.408;18.822;2023-05-16T00:23:40;13.44;99.99
70166;SHT30;57541;47.408;18.822;2023-05-16T00:24:12;13.43;99.99
70166;SHT30;57541;47.408;18.822;2023-05-16T00:24:44;13.43;99.99
70166;SHT30;57541;47.408;18.822;2023-05-16T00:25:16;13.44;99.99
70166;SHT30;57541;47.408;18.822;2023-05-16T00:25:48;13.43;99.99
70166;SHT30;57541;47.408;18.822;2023-05-16T00:26:19;13.47;99.99
70166;SHT30;57541;47.408;18.822;2023-05-16T00:26:52;13.44;99.99
70166;SHT30;57541;47.408;18.822;2023-05-16T00:27:24;13.43;99.99
70166;SHT30;57541;47.408;18.822;2023-05-16T00:27:55;13.44;99.99
70166;SHT30;57541;47.408;18.822;2023-05-16T00:28:27;13.44;99.99
70166;SHT30;57541;47.408;18.822;2023-05-16T00:28:59;13.40;99.99
70166;SHT30;57541;47.408;18.822;2023-05-16T00:29:30;13.35;99.99
70166;SHT30;57541;47.408;18.822;2023-05-16T00:30:02;13.37;99.99
70166;SHT30;57541;47.408;18.822;2023-05-16T00:30:34;13.37;99.99
70166;SHT30;57541;47.408;18.822;2023-05-16T00:31:06;13.40;99.99
70166;SHT30;57541;47.408;18.822;2023-05-16T00:31:38;13.41;99.99
70166;SHT30;57541;47.408;18.822;2023-05-16T00:32:10;13.38;99.99
70166;SHT30;57541;47.408;18.822;2023-05-16T00:32:42;13.38;99.99
70166;SHT30;57541;47.408;18.822;2023-05-16T00:33:14;13.43;99.99
70166;SHT30;57541;47.408;18.822;2023-05-16T00:33:46;13.43;99.99
70166;SHT30;57541;47.408;18.822;2023-05-16T00:34:18;13.44;99.99
70166;SHT30;57541;47.408;18.822;2023-05-16T00:34:51;13.48;99.99
70166;SHT30;57541;47.408;18.822;2023-05-16T00:35:23;13.47;99.99
70166;SHT30;57541;47.408;18.822;2023-05-16T00:35:55;13.47;99.99
70166;SHT30;57541;47.408;18.822;2023-05-16T00:36:26;13.50;99.99
70166;SHT30;57541;47.408;18.822;2023-05-16T00:36:59;13.44;99.99
70166;SHT30;57541;47.408;18.822;2023-05-16T00:37:31;13.44;99.99
70166;SHT30;57541;47.408;18.822;2023-05-16T00:38:03;13.43;99.99
70166;SHT30;57541;47.408;18.822;2023-05-16T00:38:34;13.40;99.99
70166;SHT30;57541;47.408;18.822;2023-05-16T00:39:06;13.40;99.99
70166;SHT30;57541;47.408;18.822;2023-05-16T00:39:38;13.40;99.99
70166;SHT30;57541;47.408;18.822;2023-05-16T00:40:10;13.44;99.99
70166;SHT30;57541;47.408;18.822;2023-05-16T00:40:41;13.50;99.99
70166;SHT30;57541;47.408;18.822;2023-05-16T00:41:13;13.50;99.99
70166;SHT30;57541;47.408;18.822;2023-05-16T00:41:45;13.53;99.99
70166;SHT30;57541;47.408;18.822;2023-05-16T00:42:18;13.50;99.99
70166;SHT30;57541;47.408;18.822;2023-05-16T00:42:50;13.44;99.99
70166;SHT30;57541;47.408;18.822;2023-05-16T00:43:21;13.53;99.99
70166;SHT30;57541;47.408;18.822;2023-05-16T00:43:53;13.43;99.99
70166;SHT30;57541;47.408;18.822;2023-05-16T00:44:25;13.40;99.99
70166;SHT30;57541;47.408;18.822;2023-05-16T00:44:57;13.44;99.99
70166;SHT30;57541;47.408;18.822;2023-05-16T00:45:29;13.45;99.99
70166;SHT30;57541;47.408;18.822;2023-05-16T00:46:00;13.43;99.99
70166;SHT30;57541;47.408;18.822;2023-05-16T00:46:32;13.35;99.99
70166;SHT30;57541;47.408;18.822;2023-05-16T00:47:04;13.30;99.99
70166;SHT30;57541;47.408;18.822;2023-05-16T00:47:36;13.38;99.99
70166;SHT30;57541;47.408;18.822;2023-05-16T00:48:08;13.38;99.99
70166;SHT30;57541;47.408;18.822;2023-05-16T00:48:40;13.44;99.99
70166;SHT30;57541;47.408;18.822;2023-05-16T00:49:12;13.45;99.99
70166;SHT30;57541;47.408;18.822;2023-05-16T00:49:44;13.47;99.99
70166;SHT30;57541;47.408;18.822;2023-05-16T00:50:16;13.47;99.99
70166;SHT30;57541;47.408;18.822;2023-05-16T00:50:48;13.50;99.99
70166;SHT30;57541;47.408;18.822;2023-05-16T00:51:20;13.44;99.99
70166;SHT30;57541;47.408;18.822;2023-05-16T00:51:52;13.48;99.99
70166;SHT30;57541;47.408;18.822;2023-05-16T00:52:24;13.44;99.99
70166;SHT30;57541;47.408;18.822;2023-05-16T00:52:57;13.41;99.99
70166;SHT30;57541;47.408;18.822;2023-05-16T00:53:28;13.43;99.99
70166;SHT30;57541;47.408;18.822;2023-05-16T00:54:01;13.41;99.99
70166;SHT30;57541;47.408;18.822;2023-05-16T00:54:33;13.45;99.99
70166;SHT30;57541;47.408;18.822;2023-05-16T00:55:05;13.47;99.99
70166;SHT30;57541;47.408;18.822;2023-05-16T00:55:37;13.45;99.99
70166;SHT30;57541;47.408;18.822;2023-05-16T00:56:09;13.40;99.99
70166;SHT30;57541;47.408;18.822;2023-05-16T00:56:41;13.41;99.99
70166;SHT30;57541;47.408;18.822;2023-05-16T00:57:14;13.44;99.99
70166;SHT30;57541;47.408;18.822;2023-05-16T00:57:46;13.50;99.99
70166;SHT30;57541;47.408;18.822;2023-05-16T00:58:18;13.53;99.99
70166;SHT30;57541;47.408;18.822;2023-05-16T00:58:52;13.54;99.99
70166;SHT30;57541;47.408;18.822;2023-05-16T00:59:24;13.57;99.99
70166;SHT30;57541;47.408;18.822;2023-05-16T00:59:56;13.53;99.99
70166;SHT30;57541;47.408;18.822;2023-05-16T01:00:28;13.53;99.99
70166;SHT30;57541;47.408;18.822;2023-05-16T01:01:00;13.47;99.99
70166;SHT30;57541;47.408;18.822;2023-05-16T01:01:35;13.48;99.99
70166;SHT30;57541;47.408;18.822;2023-05-16T01:02:07;13.50;99.99
70166;SHT30;57541;47.408;18.822;2023-05-16T01:02:39;13.50;99.99
70166;SHT30;57541;47.408;18.822;2023-05-16T01:03:11;13.44;99.99
70166;SHT30;57541;47.408;18.822;2023-05-16T01:03:43;13.44;99.99
70166;SHT30;57541;47.408;18.822;2023-05-16T01:04:18;13.47;99.99
70166;SHT30;57541;47.408;18.822;2023-05-16T01:04:50;13.45;99.99
70166;SHT30;57541;47.408;18.822;2023-05-16T01:05:22;13.45;99.99
70166;SHT30;57541;47.408;18.822;2023-05-16T01:05:54;13.48;99.99
70166;SHT30;57541;47.408;18.822;2023-05-16T01:06:27;13.38;99.99
70166;SHT30;57541;47.408;18.822;2023-05-16T01:07:00;13.40;99.99
70166;SHT30;57541;47.408;18.822;2023-05-16T01:07:33;13.37;99.99
70166;SHT30;57541;47.408;18.822;2023-05-16T01:08:05;13.31;99.99
70166;SHT30;57541;47.408;18.822;2023-05-16T01:08:37;13.34;99.99
70166;SHT30;57541;47.408;18.822;2023-05-16T01:09:09;13.31;99.99
70166;SHT30;57541;47.408;18.822;2023-05-16T01:09:42;13.26;99.99
70166;SHT30;57541;47.408;18.822;2023-05-16T01:10:14;13.21;99.99
70166;SHT30;57541;47.408;18.822;2023-05-16T01:11:01;13.26;99.99
70166;SHT30;57541;47.408;18.822;2023-05-16T01:11:51;13.28;99.99
70166;SHT30;57541;47.408;18.822;2023-05-16T01:12:44;13.34;99.99
70166;SHT30;57541;47.408;18.822;2023-05-16T01:15:28;13.41;99.99
70166;SHT30;57541;47.408;18.822;2023-05-16T01:16:09;13.37;99.99
70166;SHT30;57541;47.408;18.822;2023-05-16T01:17:06;13.31;99.99
70166;SHT30;57541;47.408;18.822;2023-05-16T01:18:32;13.31;99.99
70166;SHT30;57541;47.408;18.822;2023-05-16T01:20:29;13.44;99.99
70166;SHT30;57541;47.408;18.822;2023-05-16T01:21:08;13.35;99.99
70166;SHT30;57541;47.408;18.822;2023-05-16T01:21:48;13.41;99.99
70166;SHT30;57541;47.408;18.822;2023-05-16T01:22:44;13.47;99.99
70166;SHT30;57541;47.408;18.822;2023-05-16T01:24:11;13.48;99.99
70166;SHT30;57541;47.408;18.822;2023-05-16T01:26:48;13.38;99.99
70166;SHT30;57541;47.408;18.822;2023-05-16T01:27:22;13.33;99.99
70166;SHT30;57541;47.408;18.822;2023-05-16T01:27:54;13.33;99.99
70166;SHT30;57541;47.408;18.822;2023-05-16T01:28:28;13.26;99.99
70166;SHT30;57541;47.408;18.822;2023-05-16T01:29:00;13.28;99.99
70166;SHT30;57541;47.408;18.822;2023-05-16T01:29:32;13.27;99.99
70166;SHT30;57541;47.408;18.822;2023-05-16T01:30:16;13.31;99.99
70166;SHT30;57541;47.408;18.822;2023-05-16T01:30:49;13.26;99.99
70166;SHT30;57541;47.408;18.822;2023-05-16T01:31:22;13.28;99.99
70166;SHT30;57541;47.408;18.822;2023-05-16T01:31:54;13.30;99.99
70166;SHT30;57541;47.408;18.822;2023-05-16T01:32:25;13.31;99.99
70166;SHT30;57541;47.408;18.822;2023-05-16T01:32:57;13.33;99.99
70166;SHT30;57541;47.408;18.822;2023-05-16T01:33:29;13.30;99.99
70166;SHT30;57541;47.408;18.822;2023-05-16T01:34:01;13.27;99.99
70166;SHT30;57541;47.408;18.822;2023-05-16T01:34:32;13.28;99.99
70166;SHT30;57541;47.408;18.822;2023-05-16T01:35:05;13.27;99.99
70166;SHT30;57541;47.408;18.822;2023-05-16T01:36:05;13.33;99.99
70166;SHT30;57541;47.408;18.822;2023-05-16T01:36:56;13.24;99.99
70166;SHT30;57541;47.408;18.822;2023-05-16T01:37:35;13.26;99.99
70166;SHT30;57541;47.408;18.822;2023-05-16T01:38:35;13.28;99.99
70166;SHT30;57541;47.408;18.822;2023-05-16T01:39:24;13.26;99.99
70166;SHT30;57541;47.408;18.822;2023-05-16T01:40:14;13.23;99.99
70166;SHT30;57541;47.408;18.822;2023-05-16T01:40:53;13.23;99.99
70166;SHT30;57541;47.408;18.822;2023-05-16T01:42:12;13.23;99.99
70166;SHT30;57541;47.408;18.822;2023-05-16T01:42:20;13.16;99.99
70166;SHT30;57541;47.408;18.822;2023-05-16T01:42:55;13.13;99.99
70166;SHT30;57541;47.408;18.822;2023-05-16T01:43:42;13.18;99.99
70166;SHT30;57541;47.408;18.822;2023-05-16T01:44:30;13.13;99.99
70166;SHT30;57541;47.408;18.822;2023-05-16T01:45:09;13.11;99.99
70166;SHT30;57541;47.408;18.822;2023-05-16T01:45:49;13.10;99.99
70166;SHT30;57541;47.408;18.822;2023-05-16T01:46:26;13.14;99.99
70166;SHT30;57541;47.408;18.822;2023-05-16T01:47:01;13.10;99.99
70166;SHT30;57541;47.408;18.822;2023-05-16T01:47:39;13.08;99.99
70166;SHT30;57541;47.408;18.822;2023-05-16T01:48:21;13.08;99.99
70166;SHT30;57541;47.408;18.822;2023-05-16T01:49:14;13.11;99.99
70166;SHT30;57541;47.408;18.822;2023-05-16T01:50:32;13.13;99.99
70166;SHT30;57541;47.408;18.822;2023-05-16T01:51:05;13.11;99.99
70166;SHT30;57541;47.408;18.822;2023-05-16T01:51:39;13.13;99.99
70166;SHT30;57541;47.408;18.822;2023-05-16T01:52:19;13.14;99.99
70166;SHT30;57541;47.408;18.822;2023-05-16T01:52:58;13.11;99.99
70166;SHT30;57541;47.408;18.822;2023-05-16T01:53:36;13.10;99.99
70166;SHT30;57541;47.408;18.822;2023-05-16T01:54:11;13.14;99.99
70166;SHT30;57541;47.408;18.822;2023-05-16T01:54:46;13.13;99.99
70166;SHT30;57541;47.408;18.822;2023-05-16T01:55:47;13.14;99.99
70166;SHT30;57541;47.408;18.822;2023-05-16T01:56:20;13.16;99.99
70166;SHT30;57541;47.408;18.822;2023-05-16T01:56:53;13.14;99.99
70166;SHT30;57541;47.408;18.822;2023-05-16T01:57:27;13.17;99.99
70166;SHT30;57541;47.408;18.822;2023-05-16T01:58:04;13.14;99.99
70166;SHT30;57541;47.408;18.822;2023-05-16T01:58:38;13.17;99.99
70166;SHT30;57541;47.408;18.822;2023-05-16T01:59:11;13.23;99.99
70166;SHT30;57541;47.408;18.822;2023-05-16T01:59:43;13.23;99.99
70166;SHT30;57541;47.408;18.822;2023-05-16T02:00:15;13.20;99.99
70166;SHT30;57541;47.408;18.822;2023-05-16T02:00:47;13.21;99.99
70166;SHT30;57541;47.408;18.822;2023-05-16T02:01:19;13.16;99.99
70166;SHT30;57541;47.408;18.822;2023-05-16T02:01:53;13.17;99.99
70166;SHT30;57541;47.408;18.822;2023-05-16T02:02:27;13.16;99.99
70166;SHT30;57541;47.408;18.822;2023-05-16T02:02:59;13.18;99.99
70166;SHT30;57541;47.408;18.822;2023-05-16T02:03:32;13.18;99.99
70166;SHT30;57541;47.408;18.822;2023-05-16T02:04:04;13.21;99.99
70166;SHT30;57541;47.408;18.822;2023-05-16T02:04:35;13.16;99.99
70166;SHT30;57541;47.408;18.822;2023-05-16T02:05:07;13.13;99.99
70166;SHT30;57541;47.408;18.822;2023-05-16T02:05:39;13.14;99.99
70166;SHT30;57541;47.408;18.822;2023-05-16T02:06:11;13.08;99.99
70166;SHT30;57541;47.408;18.822;2023-05-16T02:06:42;13.10;99.99
70166;SHT30;57541;47.408;18.822;2023-05-16T02:07:14;13.11;99.99
70166;SHT30;57541;47.408;18.822;2023-05-16T02:07:46;13.14;99.99
70166;SHT30;57541;47.408;18.822;2023-05-16T02:08:19;13.13;99.99
70166;SHT30;57541;47.408;18.822;2023-05-16T02:08:50;13.13;99.99
70166;SHT30;57541;47.408;18.822;2023-05-16T02:09:22;13.14;99.99
70166;SHT30;57541;47.408;18.822;2023-05-16T02:09:56;13.13;99.99
70166;SHT30;57541;47.408;18.822;2023-05-16T02:10:28;13.14;99.99
70166;SHT30;57541;47.408;18.822;2023-05-16T02:10:59;13.16;99.99
70166;SHT30;57541;47.408;18.822;2023-05-16T02:11:31;13.13;99.99
70166;SHT30;57541;47.408;18.822;2023-05-16T02:12:03;13.11;99.99
70166;SHT30;57541;47.408;18.822;2023-05-16T02:12:35;13.16;99.99
70166;SHT30;57541;47.408;18.822;2023-05-16T02:13:07;13.14;99.99
70166;SHT30;57541;47.408;18.822;2023-05-16T02:13:39;13.14;99.99
70166;SHT30;57541;47.408;18.822;2023-05-16T02:14:10;13.16;99.99
70166;SHT30;57541;47.408;18.822;2023-05-16T02:14:42;13.13;99.99
70166;SHT30;57541;47.408;18.822;2023-05-16T02:15:14;13.10;99.99
70166;SHT30;57541;47.408;18.822;2023-05-16T02:15:45;13.08;99.99
70166;SHT30;57541;47.408;18.822;2023-05-16T02:16:17;13.16;99.99
70166;SHT30;57541;47.408;18.822;2023-05-16T02:16:49;13.10;99.99
70166;SHT30;57541;47.408;18.822;2023-05-16T02:17:21;13.11;99.99
70166;SHT30;57541;47.408;18.822;2023-05-16T02:17:53;13.11;99.99
70166;SHT30;57541;47.408;18.822;2023-05-16T02:18:25;13.08;99.99
70166;SHT30;57541;47.408;18.822;2023-05-16T02:18:58;13.10;99.99
70166;SHT30;57541;47.408;18.822;2023-05-16T02:19:30;13.07;99.99
70166;SHT30;57541;47.408;18.822;2023-05-16T02:20:02;13.10;99.99
70166;SHT30;57541;47.408;18.822;2023-05-16T02:20:37;13.08;99.99
70166;SHT30;57541;47.408;18.822;2023-05-16T02:21:10;13.07;99.99
70166;SHT30;57541;47.408;18.822;2023-05-16T02:21:41;13.10;99.99
70166;SHT30;57541;47.408;18.822;2023-05-16T02:22:13;12.99;99.99
70166;SHT30;57541;47.408;18.822;2023-05-16T02:22:45;13.03;99.99
70166;SHT30;57541;47.408;18.822;2023-05-16T02:23:18;13.03;99.99
70166;SHT30;57541;47.408;18.822;2023-05-16T02:23:49;13.04;99.99
70166;SHT30;57541;47.408;18.822;2023-05-16T02:24:21;13.02;99.99
70166;SHT30;57541;47.408;18.822;2023-05-16T02:24:53;12.97;99.99
70166;SHT30;57541;47.408;18.822;2023-05-16T02:25:25;13.02;99.99
70166;SHT30;57541;47.408;18.822;2023-05-16T02:25:57;13.00;99.99
70166;SHT30;57541;47.408;18.822;2023-05-16T02:26:28;13.02;99.99
70166;SHT30;57541;47.408;18.822;2023-05-16T02:27:00;12.97;99.99
70166;SHT30;57541;47.408;18.822;2023-05-16T02:27:32;13.02;99.99
70166;SHT30;57541;47.408;18.822;2023-05-16T02:28:04;13.04;99.99
70166;SHT30;57541;47.408;18.822;2023-05-16T02:28:35;13.03;99.99
70166;SHT30;57541;47.408;18.822;2023-05-16T02:29:08;13.02;99.99
70166;SHT30;57541;47.408;18.822;2023-05-16T02:29:40;13.00;99.99
70166;SHT30;57541;47.408;18.822;2023-05-16T02:30:12;13.03;99.99
70166;SHT30;57541;47.408;18.822;2023-05-16T02:30:44;13.04;99.99
70166;SHT30;57541;47.408;18.822;2023-05-16T02:31:28;13.02;99.99
70166;SHT30;57541;47.408;18.822;2023-05-16T02:32:00;13.07;99.99
70166;SHT30;57541;47.408;18.822;2023-05-16T02:32:32;13.08;99.99
70166;SHT30;57541;47.408;18.822;2023-05-16T02:33:04;13.04;99.99
70166;SHT30;57541;47.408;18.822;2023-05-16T02:33:36;13.06;99.99
70166;SHT30;57541;47.408;18.822;2023-05-16T02:34:07;13.03;99.99
70166;SHT30;57541;47.408;18.822;2023-05-16T02:34:39;13.04;99.99
70166;SHT30;57541;47.408;18.822;2023-05-16T02:35:12;13.06;99.99
70166;SHT30;57541;47.408;18.822;2023-05-16T02:35:43;13.02;99.99
70166;SHT30;57541;47.408;18.822;2023-05-16T02:36:15;13.02;99.99
70166;SHT30;57541;47.408;18.822;2023-05-16T02:36:47;13.00;99.99
70166;SHT30;57541;47.408;18.822;2023-05-16T02:37:18;13.00;99.99
70166;SHT30;57541;47.408;18.822;2023-05-16T02:37:50;12.95;99.99
70166;SHT30;57541;47.408;18.822;2023-05-16T02:38:22;12.95;99.99
70166;SHT30;57541;47.408;18.822;2023-05-16T02:38:54;12.93;99.99
70166;SHT30;57541;47.408;18.822;2023-05-16T02:39:25;12.95;99.99
70166;SHT30;57541;47.408;18.822;2023-05-16T02:39:57;12.92;99.99
70166;SHT30;57541;47.408;18.822;2023-05-16T02:40:29;12.89;99.99
70166;SHT30;57541;47.408;18.822;2023-05-16T02:41:01;12.87;99.99
70166;SHT30;57541;47.408;18.822;2023-05-16T02:41:33;12.92;99.99
70166;SHT30;57541;47.408;18.822;2023-05-16T02:42:05;12.90;99.99
70166;SHT30;57541;47.408;18.822;2023-05-16T02:42:37;12.89;99.99
70166;SHT30;57541;47.408;18.822;2023-05-16T02:43:09;12.89;99.99
70166;SHT30;57541;47.408;18.822;2023-05-16T02:43:41;12.89;99.99
70166;SHT30;57541;47.408;18.822;2023-05-16T02:44:17;12.95;99.99
70166;SHT30;57541;47.408;18.822;2023-05-16T02:44:49;12.97;99.99
70166;SHT30;57541;47.408;18.822;2023-05-16T02:45:20;12.92;99.99
70166;SHT30;57541;47.408;18.822;2023-05-16T02:45:52;12.93;99.99
70166;SHT30;57541;47.408;18.822;2023-05-16T02:46:27;12.95;99.99
70166;SHT30;57541;47.408;18.822;2023-05-16T02:47:01;12.96;99.99
70166;SHT30;57541;47.408;18.822;2023-05-16T02:47:32;12.97;99.99
70166;SHT30;57541;47.408;18.822;2023-05-16T02:48:04;12.93;99.99
70166;SHT30;57541;47.408;18.822;2023-05-16T02:48:36;12.92;99.99
70166;SHT30;57541;47.408;18.822;2023-05-16T02:49:08;12.97;99.99
70166;SHT30;57541;47.408;18.822;2023-05-16T02:49:40;12.95;99.99
70166;SHT30;57541;47.408;18.822;2023-05-16T02:50:12;12.92;99.99
70166;SHT30;57541;47.408;18.822;2023-05-16T02:50:44;12.92;99.99
70166;SHT30;57541;47.408;18.822;2023-05-16T02:51:15;12.93;99.99
70166;SHT30;57541;47.408;18.822;2023-05-16T02:51:47;12.95;99.99
70166;SHT30;57541;47.408;18.822;2023-05-16T02:52:20;12.97;99.99
70166;SHT30;57541;47.408;18.822;2023-05-16T02:52:51;12.95;99.99
70166;SHT30;57541;47.408;18.822;2023-05-16T02:53:23;12.95;99.99
70166;SHT30;57541;47.408;18.822;2023-05-16T02:53:55;12.96;99.99
70166;SHT30;57541;47.408;18.822;2023-05-16T02:54:27;12.97;99.99
70166;SHT30;57541;47.408;18.822;2023-05-16T02:54:59;12.95;99.99
70166;SHT30;57541;47.408;18.822;2023-05-16T02:55:51;12.95;99.99
70166;SHT30;57541;47.408;18.822;2023-05-16T02:56:22;12.96;99.99
70166;SHT30;57541;47.408;18.822;2023-05-16T02:56:54;13.04;99.99
70166;SHT30;57541;47.408;18.822;2023-05-16T02:57:26;13.02;99.99
70166;SHT30;57541;47.408;18.822;2023-05-16T02:57:57;12.99;99.99
70166;SHT30;57541;47.408;18.822;2023-05-16T02:58:29;12.95;99.99
70166;SHT30;57541;47.408;18.822;2023-05-16T02:59:01;12.96;99.99
70166;SHT30;57541;47.408;18.822;2023-05-16T02:59:34;12.97;99.99
70166;SHT30;57541;47.408;18.822;2023-05-16T03:00:07;12.99;99.99
70166;SHT30;57541;47.408;18.822;2023-05-16T03:00:41;13.02;99.99
70166;SHT30;57541;47.408;18.822;2023-05-16T03:01:13;13.02;99.99
70166;SHT30;57541;47.408;18.822;2023-05-16T03:01:46;12.99;99.99
70166;SHT30;57541;47.408;18.822;2023-05-16T03:02:18;12.97;99.99
70166;SHT30;57541;47.408;18.822;2023-05-16T03:02:49;12.96;99.99
70166;SHT30;57541;47.408;18.822;2023-05-16T03:03:21;12.93;99.99
70166;SHT30;57541;47.408;18.822;2023-05-16T03:03:53;12.87;99.99
70166;SHT30;57541;47.408;18.822;2023-05-16T03:04:25;12.90;99.99
70166;SHT30;57541;47.408;18.822;2023-05-16T03:04:57;12.92;99.99
70166;SHT30;57541;47.408;18.822;2023-05-16T03:05:29;12.92;99.99
70166;SHT30;57541;47.408;18.822;2023-05-16T03:06:01;12.93;99.99
70166;SHT30;57541;47.408;18.822;2023-05-16T03:06:33;12.90;99.99
70166;SHT30;57541;47.408;18.822;2023-05-16T03:07:04;12.89;99.99
70166;SHT30;57541;47.408;18.822;2023-05-16T03:07:37;12.89;99.99
70166;SHT30;57541;47.408;18.822;2023-05-16T03:08:08;12.85;99.99
70166;SHT30;57541;47.408;18.822;2023-05-16T03:08:41;12.80;99.99
70166;SHT30;57541;47.408;18.822;2023-05-16T03:09:13;12.82;99.99
70166;SHT30;57541;47.408;18.822;2023-05-16T03:09:44;12.79;99.99
70166;SHT30;57541;47.408;18.822;2023-05-16T03:10:16;12.80;99.99
70166;SHT30;57541;47.408;18.822;2023-05-16T03:10:48;12.77;99.99
70166;SHT30;57541;47.408;18.822;2023-05-16T03:11:20;12.82;99.99
70166;SHT30;57541;47.408;18.822;2023-05-16T03:11:53;12.77;99.99
70166;SHT30;57541;47.408;18.822;2023-05-16T03:12:24;12.80;99.99
70166;SHT30;57541;47.408;18.822;2023-05-16T03:12:56;12.80;99.99
70166;SHT30;57541;47.408;18.822;2023-05-16T03:13:28;12.77;99.99
70166;SHT30;57541;47.408;18.822;2023-05-16T03:14:00;12.76;99.99
70166;SHT30;57541;47.408;18.822;2023-05-16T03:14:32;12.79;99.99
70166;SHT30;57541;47.408;18.822;2023-05-16T03:15:04;12.79;99.99
70166;SHT30;57541;47.408;18.822;2023-05-16T03:15:36;12.79;99.99
70166;SHT30;57541;47.408;18.822;2023-05-16T03:16:08;12.79;99.99
70166;SHT30;57541;47.408;18.822;2023-05-16T03:16:40;12.80;99.99
70166;SHT30;57541;47.408;18.822;2023-05-16T03:17:14;12.79;99.99
70166;SHT30;57541;47.408;18.822;2023-05-16T03:17:46;12.79;99.99
70166;SHT30;57541;47.408;18.822;2023-05-16T03:18:17;12.85;99.99
70166;SHT30;57541;47.408;18.822;2023-05-16T03:18:49;12.86;99.99
70166;SHT30;57541;47.408;18.822;2023-05-16T03:19:21;12.85;99.99
70166;SHT30;57541;47.408;18.822;2023-05-16T03:19:53;12.86;99.99
70166;SHT30;57541;47.408;18.822;2023-05-16T03:20:24;12.87;99.99
70166;SHT30;57541;47.408;18.822;2023-05-16T03:20:56;12.83;99.99
70166;SHT30;57541;47.408;18.822;2023-05-16T03:21:28;12.86;99.99
70166;SHT30;57541;47.408;18.822;2023-05-16T03:22:00;12.89;99.99
70166;SHT30;57541;47.408;18.822;2023-05-16T03:22:31;12.89;99.99
70166;SHT30;57541;47.408;18.822;2023-05-16T03:23:03;12.90;99.99
70166;SHT30;57541;47.408;18.822;2023-05-16T03:23:38;12.93;99.99
70166;SHT30;57541;47.408;18.822;2023-05-16T03:24:10;12.87;99.99
70166;SHT30;57541;47.408;18.822;2023-05-16T03:24:42;12.95;99.99
70166;SHT30;57541;47.408;18.822;2023-05-16T03:25:14;12.95;99.99
70166;SHT30;57541;47.408;18.822;2023-05-16T03:25:46;12.95;99.99
70166;SHT30;57541;47.408;18.822;2023-05-16T03:26:18;12.96;99.99
70166;SHT30;57541;47.408;18.822;2023-05-16T03:26:49;12.92;99.99
70166;SHT30;57541;47.408;18.822;2023-05-16T03:27:21;12.96;99.99
70166;SHT30;57541;47.408;18.822;2023-05-16T03:27:53;12.90;99.99
70166;SHT30;57541;47.408;18.822;2023-05-16T03:28:26;12.90;99.99
70166;SHT30;57541;47.408;18.822;2023-05-16T03:28:58;12.89;99.99
70166;SHT30;57541;47.408;18.822;2023-05-16T03:29:30;12.92;99.99
70166;SHT30;57541;47.408;18.822;2023-05-16T03:30:01;12.92;99.99
70166;SHT30;57541;47.408;18.822;2023-05-16T03:30:33;12.93;99.99
70166;SHT30;57541;47.408;18.822;2023-05-16T03:31:05;12.95;99.99
70166;SHT30;57541;47.408;18.822;2023-05-16T03:31:38;12.92;99.99
70166;SHT30;57541;47.408;18.822;2023-05-16T03:32:10;12.97;99.99
70166;SHT30;57541;47.408;18.822;2023-05-16T03:32:44;12.96;99.99
70166;SHT30;57541;47.408;18.822;2023-05-16T03:33:16;12.97;99.99
70166;SHT30;57541;47.408;18.822;2023-05-16T03:33:49;12.93;99.99
70166;SHT30;57541;47.408;18.822;2023-05-16T03:34:21;12.90;99.99
70166;SHT30;57541;47.408;18.822;2023-05-16T03:34:53;12.93;99.99
70166;SHT30;57541;47.408;18.822;2023-05-16T03:35:24;12.93;99.99